Time;durP1;ratioP1;P1;durP2;ratioP2;P2;SDS_P1;SDS_P2;PMS_P1;PMS_P2;Temp;Humidity;BMP_temperature;BMP_pressure;BME280_temperature;BME280_humidity;BME280_pressure;Samples;Min_cycle;Max_cycle;Signal;HPM_P1;HPM_P2
2023/03/30 00:02:37;;;;;;;9.80;9.10;;;8.90;69.70;;;;;;6264928;28;20256;-85
2023/03/30 00:05:41;;;;;;;11.23;10.27;;;8.90;69.80;;;;;;6255058;28;20245;-84
2023/03/30 00:08:45;;;;;;;9.67;9.00;;;8.90;69.90;;;;;;6261398;28;20382;-84
2023/03/30 00:11:48;;;;;;;9.90;9.00;;;8.90;69.90;;;;;;6259739;28;20480;-85
2023/03/30 00:14:55;;;;;;;8.97;8.40;;;8.80;70.20;;;;;;6268370;28;20230;-83
2023/03/30 00:17:58;;;;;;;9.77;8.97;;;8.80;70.20;;;;;;6254856;28;20830;-87
2023/03/30 00:21:02;;;;;;;11.90;10.90;;;8.80;70.30;;;;;;6274197;28;20238;-86
2023/03/30 00:24:05;;;;;;;11.00;10.10;;;8.80;70.50;;;;;;6270001;28;20244;-83
2023/03/30 00:27:09;;;;;;;11.03;10.13;;;8.80;70.80;;;;;;6256749;28;20252;-84
2023/03/30 00:30:16;;;;;;;12.23;10.50;;;8.70;71.30;;;;;;6262806;28;20226;-84
2023/03/30 00:33:20;;;;;;;11.80;10.63;;;8.70;71.40;;;;;;6240975;28;20818;-82
2023/03/30 00:36:38;;;;;;;11.97;10.77;;;8.70;72.20;;;;;;6279193;28;20233;-84
2023/03/30 00:39:43;;;;;;;10.43;9.73;;;8.70;72.30;;;;;;6287846;28;20221;-83
2023/03/30 00:42:47;;;;;;;11.23;10.43;;;8.60;72.30;;;;;;6276210;28;20245;-84
2023/03/30 00:45:52;;;;;;;13.27;12.10;;;8.70;72.50;;;;;;6275778;28;20704;-83
2023/03/30 00:48:58;;;;;;;13.93;12.37;;;8.60;72.70;;;;;;6286890;28;20635;-81
2023/03/30 00:52:02;;;;;;;12.33;11.13;;;8.60;73.10;;;;;;6279533;28;20242;-84
2023/03/30 00:55:07;;;;;;;11.17;10.27;;;8.60;73.20;;;;;;6273913;28;20334;-84
2023/03/30 00:58:12;;;;;;;10.13;9.53;;;8.60;73.40;;;;;;6271006;28;20244;-83
2023/03/30 01:01:24;;;;;;;10.97;10.10;;;8.60;73.20;;;;;;6279689;28;20395;-84
2023/03/30 01:04:28;;;;;;;10.40;9.57;;;8.60;73.30;;;;;;6260742;28;20612;-83
2023/03/30 01:07:33;;;;;;;9.73;9.03;;;8.60;73.40;;;;;;6254031;28;20229;-85
2023/03/30 01:10:36;;;;;;;11.03;9.93;;;8.60;73.30;;;;;;6265969;28;20631;-83
2023/03/30 01:13:43;;;;;;;10.37;9.47;;;8.60;73.30;;;;;;6265638;28;20230;-83
2023/03/30 01:16:54;;;;;;;9.97;9.27;;;8.50;73.50;;;;;;6260123;28;20240;-85
2023/03/30 01:20:27;;;;;;;11.00;10.00;;;8.60;73.50;;;;;;6256933;28;20246;-84
2023/03/30 01:24:19;;;;;;;11.77;10.83;;;8.60;73.60;;;;;;6224603;28;20266;-84
2023/03/30 01:27:46;;;;;;;9.83;9.03;;;8.50;73.80;;;;;;6226509;28;20698;-83
2023/03/30 01:31:17;;;;;;;9.27;8.67;;;8.60;73.70;;;;;;6260303;28;20283;-84
2023/03/30 01:34:50;;;;;;;10.20;9.40;;;8.50;73.80;;;;;;6246042;28;20230;-86
2023/03/30 01:38:35;;;;;;;9.17;8.57;;;8.50;73.80;;;;;;6259590;28;20233;-84
2023/03/30 01:41:46;;;;;;;10.50;9.60;;;8.50;73.90;;;;;;6249635;28;20650;-85
2023/03/30 01:44:57;;;;;;;10.37;9.57;;;8.50;74.00;;;;;;6253737;28;20226;-85
2023/03/30 01:48:09;;;;;;;11.07;10.07;;;8.50;74.00;;;;;;6251744;28;20238;-85
2023/03/30 01:51:19;;;;;;;11.07;10.20;;;8.50;74.50;;;;;;6261336;28;20238;-86
2023/03/30 01:54:24;;;;;;;10.90;10.00;;;8.40;74.50;;;;;;6258050;28;20617;-83
2023/03/30 01:57:33;;;;;;;11.40;10.50;;;8.40;74.80;;;;;;6261982;28;20325;-85
2023/03/30 02:00:40;;;;;;;11.30;10.30;;;8.40;74.90;;;;;;6270216;28;20238;-87
2023/03/30 02:03:46;;;;;;;10.00;9.30;;;8.40;74.80;;;;;;6289650;28;20496;-84
2023/03/30 02:06:55;;;;;;;9.03;8.43;;;8.40;74.70;;;;;;6284970;28;20608;-84
2023/03/30 02:10:02;;;;;;;10.33;9.63;;;8.40;74.80;;;;;;6267143;28;20248;-84
2023/03/30 02:13:11;;;;;;;9.90;9.17;;;8.50;74.80;;;;;;6254233;28;20249;-85
2023/03/30 02:16:20;;;;;;;9.80;8.97;;;8.50;74.90;;;;;;6264090;28;20323;-84
2023/03/30 02:19:23;;;;;;;11.13;10.13;;;8.50;74.80;;;;;;6261698;28;20238;-87
2023/03/30 02:22:28;;;;;;;10.87;9.97;;;8.40;75.00;;;;;;6262912;28;20234;-84
2023/03/30 02:25:31;;;;;;;11.27;10.37;;;8.40;75.10;;;;;;6260684;28;20240;-83
2023/03/30 02:28:36;;;;;;;10.17;9.27;;;8.40;75.30;;;;;;6260844;28;20252;-84
2023/03/30 02:31:39;;;;;;;10.73;9.93;;;8.30;75.40;;;;;;6254624;28;20510;-84
2023/03/30 02:34:58;;;;;;;11.10;10.17;;;8.30;75.50;;;;;;6260229;28;20708;-84
2023/03/30 02:38:25;;;;;;;10.87;9.70;;;8.30;75.80;;;;;;6251228;28;20607;-84
2023/03/30 02:41:45;;;;;;;10.40;9.50;;;8.30;75.90;;;;;;6241343;28;20718;-83
2023/03/30 02:45:06;;;;;;;9.27;8.67;;;8.20;75.90;;;;;;6256871;28;20279;-84
2023/03/30 02:48:22;;;;;;;10.13;9.30;;;8.30;75.80;;;;;;6253087;28;20291;-84
2023/03/30 02:51:38;;;;;;;9.13;8.53;;;8.30;75.70;;;;;;6241900;28;20238;-85
2023/03/30 02:54:48;;;;;;;11.07;10.07;;;8.40;75.60;;;;;;6242983;28;20231;-85
2023/03/30 02:58:02;;;;;;;10.50;9.70;;;8.40;75.60;;;;;;6275220;28;20241;-83
2023/03/30 03:01:11;;;;;;;10.70;9.80;;;8.40;75.50;;;;;;6277280;28;20266;-85
2023/03/30 03:04:18;;;;;;;11.07;10.13;;;8.40;75.50;;;;;;6282646;28;20244;-84
2023/03/30 03:07:22;;;;;;;11.10;10.30;;;8.40;75.50;;;;;;6259705;28;20245;-84
2023/03/30 03:10:25;;;;;;;10.67;9.63;;;8.40;75.50;;;;;;6259052;28;20245;-85
2023/03/30 03:13:30;;;;;;;10.63;9.83;;;8.30;76.00;;;;;;6252482;28;20786;-85
2023/03/30 03:16:35;;;;;;;12.47;10.70;;;8.30;76.10;;;;;;6250472;28;20368;-83
2023/03/30 03:19:39;;;;;;;10.80;9.87;;;8.20;76.20;;;;;;6262678;28;20230;-84
2023/03/30 03:22:42;;;;;;;10.87;9.97;;;8.20;76.40;;;;;;6262488;28;20791;-85
2023/03/30 03:25:46;;;;;;;11.60;10.77;;;8.30;76.10;;;;;;6247679;28;20360;-84
2023/03/30 03:28:49;;;;;;;11.00;10.10;;;8.30;76.10;;;;;;6256021;28;21232;-84
2023/03/30 03:31:54;;;;;;;11.97;10.77;;;8.30;76.20;;;;;;6262292;28;20290;-84
2023/03/30 03:34:57;;;;;;;11.17;10.37;;;8.30;76.10;;;;;;6265981;28;20248;-83
2023/03/30 03:38:00;;;;;;;11.43;10.43;;;8.30;76.10;;;;;;6268063;28;20253;-83
2023/03/30 03:41:04;;;;;;;12.40;11.30;;;8.30;76.10;;;;;;6277865;28;20241;-81
2023/03/30 03:44:07;;;;;;;11.93;10.83;;;8.20;76.30;;;;;;6255542;28;20234;-84
2023/03/30 03:47:13;;;;;;;11.73;10.83;;;8.30;76.40;;;;;;6266711;28;20233;-80
2023/03/30 03:50:18;;;;;;;11.03;10.17;;;8.30;76.50;;;;;;6264291;28;20237;-84
2023/03/30 03:53:23;;;;;;;12.83;11.63;;;8.30;76.40;;;;;;6267482;28;20234;-85
2023/03/30 03:56:27;;;;;;;13.63;12.30;;;8.30;76.50;;;;;;6255276;28;20542;-84
2023/03/30 03:59:30;;;;;;;12.83;11.60;;;8.20;76.50;;;;;;6259723;28;20230;-84
2023/03/30 04:02:34;;;;;;;12.83;11.53;;;8.30;76.60;;;;;;6260506;28;20414;-84
2023/03/30 04:05:38;;;;;;;12.10;11.20;;;8.30;76.50;;;;;;6248654;28;20309;-84
2023/03/30 04:08:44;;;;;;;12.60;11.50;;;8.30;76.50;;;;;;6265768;28;20241;-84
2023/03/30 04:11:47;;;;;;;11.83;10.83;;;8.30;76.50;;;;;;6280490;28;20238;-81
2023/03/30 04:14:52;;;;;;;12.87;11.67;;;8.30;76.40;;;;;;6270956;28;20236;-82
2023/03/30 04:17:58;;;;;;;11.60;10.60;;;8.30;76.40;;;;;;6259240;28;20232;-81
2023/03/30 04:21:03;;;;;;;11.80;10.77;;;8.40;76.20;;;;;;6261894;28;20254;-78
2023/03/30 04:24:10;;;;;;;11.33;10.37;;;8.40;76.00;;;;;;6268292;28;20237;-79
2023/03/30 04:27:15;;;;;;;10.27;9.33;;;8.40;76.10;;;;;;6258105;28;20235;-79
2023/03/30 04:30:21;;;;;;;11.97;10.87;;;8.40;76.10;;;;;;6275324;28;20650;-80
2023/03/30 04:33:26;;;;;;;10.90;10.00;;;8.30;76.20;;;;;;6287653;28;20736;-81
2023/03/30 04:36:29;;;;;;;12.47;11.33;;;8.40;76.20;;;;;;6274284;28;20256;-80
2023/03/30 04:39:37;;;;;;;12.00;10.90;;;8.40;76.10;;;;;;6286761;28;20501;-79
2023/03/30 04:42:40;;;;;;;12.93;11.73;;;8.40;76.20;;;;;;6286888;28;20233;-78
2023/03/30 04:45:50;;;;;;;11.83;10.83;;;8.40;76.20;;;;;;6270625;28;20241;-80
2023/03/30 04:48:55;;;;;;;12.07;11.07;;;8.40;76.30;;;;;;6261948;28;20626;-78
2023/03/30 04:51:58;;;;;;;12.40;11.33;;;8.40;76.40;;;;;;6251771;28;20253;-80
2023/03/30 04:55:01;;;;;;;12.00;11.00;;;8.50;76.20;;;;;;6261228;28;20234;-79
2023/03/30 04:58:04;;;;;;;12.23;11.03;;;8.40;76.20;;;;;;6265886;28;20405;-78
2023/03/30 05:01:08;;;;;;;12.77;11.50;;;8.50;76.10;;;;;;6257575;28;20244;-79
2023/03/30 05:04:12;;;;;;;12.87;11.57;;;8.50;75.80;;;;;;6262796;28;20363;-78
2023/03/30 05:07:15;;;;;;;12.13;11.07;;;8.50;76.00;;;;;;6247535;28;20237;-77
2023/03/30 05:10:18;;;;;;;12.33;11.23;;;8.50;75.90;;;;;;6263317;28;20245;-79
2023/03/30 05:13:21;;;;;;;11.47;10.47;;;8.40;76.00;;;;;;6269053;28;20230;-74
2023/03/30 05:16:24;;;;;;;14.47;11.80;;;8.50;75.70;;;;;;6261693;28;20261;-76
2023/03/30 05:19:29;;;;;;;11.43;10.33;;;8.50;75.60;;;;;;6253586;28;20325;-75
2023/03/30 05:22:32;;;;;;;12.57;11.33;;;8.60;75.50;;;;;;6254583;28;20242;-76
2023/03/30 05:25:35;;;;;;;10.93;9.93;;;8.60;75.40;;;;;;6250738;28;20230;-74
2023/03/30 05:28:38;;;;;;;11.70;10.70;;;8.60;75.40;;;;;;6255561;28;20246;-80
2023/03/30 05:31:41;;;;;;;11.60;10.70;;;8.60;75.10;;;;;;6249557;28;20245;-77
2023/03/30 05:34:46;;;;;;;12.00;10.80;;;8.60;75.00;;;;;;6256066;28;20908;-78
2023/03/30 05:37:50;;;;;;;11.90;10.77;;;8.60;75.00;;;;;;6254104;28;20262;-77
2023/03/30 05:40:53;;;;;;;12.40;11.30;;;8.60;74.90;;;;;;6246989;28;20330;-76
2023/03/30 05:43:56;;;;;;;13.07;10.50;;;8.60;74.80;;;;;;6253835;28;20321;-74
2023/03/30 05:47:01;;;;;;;11.20;10.30;;;8.70;74.70;;;;;;6253652;28;20234;-77
2023/03/30 05:50:08;;;;;;;11.20;10.23;;;8.70;74.60;;;;;;6246568;28;20241;-77
2023/03/30 05:53:11;;;;;;;11.17;10.10;;;8.80;74.50;;;;;;6252287;28;20235;-76
2023/03/30 05:56:14;;;;;;;10.80;10.07;;;8.80;74.20;;;;;;6250382;28;20613;-74
2023/03/30 05:59:18;;;;;;;10.13;9.27;;;8.70;74.30;;;;;;6255553;28;20377;-79
2023/03/30 06:02:21;;;;;;;9.93;9.20;;;8.70;74.30;;;;;;6253696;28;20257;-79
2023/03/30 06:05:25;;;;;;;10.60;9.73;;;8.80;74.00;;;;;;6253841;28;20234;-77
2023/03/30 06:08:28;;;;;;;10.07;9.27;;;8.80;74.20;;;;;;6268172;28;20229;-79
2023/03/30 06:11:32;;;;;;;9.57;8.87;;;8.80;74.20;;;;;;6258459;28;20230;-77
2023/03/30 06:14:35;;;;;;;9.90;9.00;;;8.90;74.10;;;;;;6254740;28;20356;-75
2023/03/30 06:17:41;;;;;;;9.57;8.80;;;8.90;73.90;;;;;;6251139;28;20303;-78
2023/03/30 06:20:47;;;;;;;8.40;7.80;;;9.00;73.70;;;;;;6251503;28;20246;-76
2023/03/30 06:23:51;;;;;;;10.77;9.87;;;9.00;73.70;;;;;;6254612;28;20622;-74
2023/03/30 06:26:54;;;;;;;12.13;9.47;;;9.10;73.50;;;;;;6259367;28;20706;-76
2023/03/30 06:30:00;;;;;;;9.70;8.87;;;9.20;73.00;;;;;;6246115;28;20249;-78
2023/03/30 06:33:03;;;;;;;9.87;9.07;;;9.30;73.00;;;;;;6256701;28;20249;-76
2023/03/30 06:36:12;;;;;;;9.40;8.70;;;9.40;72.60;;;;;;6247426;28;22936;-77
2023/03/30 06:39:16;;;;;;;8.83;8.13;;;9.50;72.20;;;;;;6256800;28;20237;-79
2023/03/30 06:42:20;;;;;;;8.73;8.17;;;9.60;71.80;;;;;;6278857;28;20402;-75
2023/03/30 06:45:23;;;;;;;11.90;8.90;;;9.70;71.60;;;;;;6277384;28;20992;-73
2023/03/30 06:48:30;;;;;;;10.47;9.47;;;9.60;72.10;;;;;;6268729;28;20233;-76
2023/03/30 06:51:35;;;;;;;9.63;8.83;;;9.60;71.80;;;;;;6287071;28;20245;-74
2023/03/30 06:54:38;;;;;;;9.83;9.00;;;9.70;71.70;;;;;;6284444;28;20240;-75
2023/03/30 06:57:44;;;;;;;10.27;9.23;;;9.80;71.50;;;;;;6285566;28;20646;-76
2023/03/30 07:00:47;;;;;;;10.27;9.07;;;9.80;71.50;;;;;;6263736;28;20273;-75
2023/03/30 07:03:52;;;;;;;9.37;8.60;;;9.80;71.40;;;;;;6272205;28;20233;-77
2023/03/30 07:06:56;;;;;;;9.47;8.77;;;9.90;71.20;;;;;;6258419;28;20461;-78
2023/03/30 07:10:00;;;;;;;10.97;9.70;;;9.70;71.50;;;;;;6268314;28;20619;-77
2023/03/30 07:13:03;;;;;;;10.07;9.07;;;9.60;71.80;;;;;;6261323;28;20250;-78
2023/03/30 07:16:07;;;;;;;9.77;8.87;;;9.80;71.60;;;;;;6268872;28;20324;-78
2023/03/30 07:19:10;;;;;;;8.93;8.03;;;9.80;71.70;;;;;;6273976;28;20229;-76
2023/03/30 07:22:14;;;;;;;10.10;9.17;;;10.10;71.20;;;;;;6270060;28;20238;-75
2023/03/30 07:25:18;;;;;;;9.93;9.23;;;10.30;70.90;;;;;;6285498;28;20234;-77
2023/03/30 07:28:21;;;;;;;9.77;8.83;;;10.50;70.30;;;;;;6289024;28;20234;-73
2023/03/30 07:31:25;;;;;;;9.53;8.50;;;10.70;69.80;;;;;;6295061;28;20222;-76
2023/03/30 07:34:28;;;;;;;9.20;8.50;;;10.90;69.30;;;;;;6293000;28;20221;-76
2023/03/30 07:37:32;;;;;;;8.63;8.03;;;11.10;69.30;;;;;;6288805;28;20252;-76
2023/03/30 07:40:36;;;;;;;8.83;8.00;;;11.10;69.00;;;;;;6289886;28;20242;-73
2023/03/30 07:43:40;;;;;;;9.47;8.67;;;11.20;68.80;;;;;;6283475;28;20238;-76
2023/03/30 07:46:43;;;;;;;8.33;7.83;;;11.40;68.30;;;;;;6270741;28;20241;-77
2023/03/30 07:49:46;;;;;;;11.50;8.17;;;11.40;68.00;;;;;;6265623;28;20249;-77
2023/03/30 07:52:52;;;;;;;8.23;7.73;;;11.50;67.50;;;;;;6263321;28;20226;-78
2023/03/30 07:55:55;;;;;;;8.87;7.90;;;11.70;67.50;;;;;;6264190;28;20230;-75
2023/03/30 07:58:58;;;;;;;8.60;7.83;;;11.70;67.30;;;;;;6266279;28;20627;-77
2023/03/30 08:02:05;;;;;;;9.13;8.33;;;11.70;67.30;;;;;;6265247;28;20322;-76
2023/03/30 08:05:10;;;;;;;8.83;7.97;;;11.70;67.30;;;;;;6255968;28;20316;-77
2023/03/30 08:08:15;;;;;;;10.03;7.37;;;11.90;67.10;;;;;;6262681;28;20290;-75
2023/03/30 08:11:19;;;;;;;7.77;7.27;;;11.90;66.90;;;;;;6265257;28;20230;-76
2023/03/30 08:14:22;;;;;;;7.50;7.00;;;12.00;66.70;;;;;;6258520;28;20776;-76
2023/03/30 08:17:25;;;;;;;7.53;6.97;;;12.20;66.50;;;;;;6279318;28;20716;-77
2023/03/30 08:20:28;;;;;;;7.00;6.47;;;12.40;65.90;;;;;;6294669;28;20711;-75
2023/03/30 08:23:34;;;;;;;7.57;6.80;;;12.50;65.90;;;;;;6279362;28;20723;-77
2023/03/30 08:26:37;;;;;;;6.77;6.30;;;12.50;65.80;;;;;;6286634;28;20408;-76
2023/03/30 08:29:40;;;;;;;7.07;6.37;;;12.80;65.40;;;;;;6278660;28;20233;-79
2023/03/30 08:32:43;;;;;;;7.77;6.10;;;13.00;64.70;;;;;;6249397;28;20632;-76
2023/03/30 08:35:48;;;;;;;8.50;6.07;;;13.10;64.30;;;;;;6254625;28;20245;-77
2023/03/30 08:38:54;;;;;;;5.83;5.40;;;13.30;63.90;;;;;;6259976;28;20237;-76
2023/03/30 08:42:12;;;;;;;6.37;5.70;;;13.60;63.20;;;;;;6254264;28;20250;-76
2023/03/30 08:45:17;;;;;;;5.93;5.40;;;13.90;62.90;;;;;;6261892;28;20230;-76
2023/03/30 08:48:22;;;;;;;5.93;5.57;;;14.10;62.70;;;;;;6270582;28;20257;-75
2023/03/30 08:51:28;;;;;;;5.13;4.73;;;14.20;62.30;;;;;;6274195;28;20265;-78
2023/03/30 08:54:34;;;;;;;5.80;4.50;;;14.40;61.50;;;;;;6277440;28;20226;-78
2023/03/30 08:57:48;;;;;;;6.17;4.90;;;14.70;60.70;;;;;;6259837;28;20810;-77
2023/03/30 09:00:57;;;;;;;4.53;4.10;;;14.90;61.00;;;;;;6279700;28;20237;-79
2023/03/30 09:04:09;;;;;;;6.83;4.50;;;14.90;59.50;;;;;;6257657;28;20230;-78
2023/03/30 09:07:20;;;;;;;5.23;4.80;;;14.80;59.70;;;;;;6251317;28;20234;-77
2023/03/30 09:10:27;;;;;;;5.23;4.73;;;14.90;59.40;;;;;;6260958;28;20236;-80
2023/03/30 09:13:32;;;;;;;4.93;4.33;;;15.00;59.70;;;;;;6258946;28;20245;-76
2023/03/30 09:16:42;;;;;;;5.73;4.87;;;15.10;60.00;;;;;;6261529;28;20250;-77
2023/03/30 09:19:51;;;;;;;9.63;4.57;;;15.30;59.40;;;;;;6260543;28;20360;-77
2023/03/30 09:23:01;;;;;;;11.33;4.40;;;15.50;59.00;;;;;;6262913;28;20666;-79
2023/03/30 09:26:17;;;;;;;4.77;3.97;;;15.50;58.70;;;;;;6266372;28;20305;-78
2023/03/30 09:29:26;;;;;;;4.50;3.87;;;15.60;58.80;;;;;;6257042;28;20236;-78
2023/03/30 09:32:32;;;;;;;6.07;3.73;;;15.90;58.30;;;;;;6255580;28;20234;-75
2023/03/30 09:35:41;;;;;;;9.07;4.80;;;16.00;57.90;;;;;;6256333;28;20249;-79
2023/03/30 09:38:45;;;;;;;6.53;4.03;;;15.80;58.50;;;;;;6255050;28;20364;-77
2023/03/30 09:41:59;;;;;;;4.80;4.27;;;15.80;58.10;;;;;;6252965;28;20657;-76
2023/03/30 09:45:09;;;;;;;7.60;4.40;;;16.00;58.20;;;;;;6259376;28;20805;-77
2023/03/30 09:48:15;;;;;;;4.33;3.97;;;16.00;57.70;;;;;;6254738;28;20235;-78
2023/03/30 09:51:21;;;;;;;4.93;4.20;;;15.90;58.30;;;;;;6257345;28;20637;-79
2023/03/30 09:54:27;;;;;;;6.40;4.30;;;15.90;58.30;;;;;;6258172;28;20242;-79
2023/03/30 09:57:32;;;;;;;6.67;4.13;;;15.80;58.20;;;;;;6251749;28;20234;-78
2023/03/30 10:00:36;;;;;;;6.97;4.37;;;15.80;58.70;;;;;;6258009;28;20315;-78
2023/03/30 10:03:42;;;;;;;8.07;4.13;;;15.80;58.50;;;;;;6261671;28;20234;-79
2023/03/30 10:06:48;;;;;;;7.10;4.13;;;16.00;58.60;;;;;;6253037;28;20288;-77
2023/03/30 10:09:51;;;;;;;8.10;4.13;;;16.00;58.20;;;;;;6254992;28;20249;-78
2023/03/30 10:13:01;;;;;;;4.13;3.77;;;15.80;58.50;;;;;;6254897;28;20725;-73
2023/03/30 10:16:07;;;;;;;7.93;4.00;;;15.70;58.90;;;;;;6262344;28;20354;-77
2023/03/30 10:19:18;;;;;;;7.40;4.20;;;15.70;59.00;;;;;;6256429;28;20238;-76
2023/03/30 10:22:22;;;;;;;3.97;3.57;;;15.60;58.90;;;;;;6257045;28;20372;-77
2023/03/30 10:25:28;;;;;;;9.33;7.93;;;15.50;59.40;;;;;;6256351;28;20233;-78
2023/03/30 10:28:35;;;;;;;5.33;4.47;;;15.60;59.70;;;;;;6262343;28;20241;-78
2023/03/30 10:31:42;;;;;;;4.60;4.30;;;15.50;59.60;;;;;;6253908;28;20238;-76
2023/03/30 10:34:50;;;;;;;6.60;4.57;;;15.60;59.40;;;;;;6249137;28;20230;-79
2023/03/30 10:37:57;;;;;;;4.87;4.37;;;15.60;59.30;;;;;;6245834;28;20785;-77
2023/03/30 10:41:07;;;;;;;8.10;4.77;;;15.60;59.40;;;;;;6246852;28;20832;-76
2023/03/30 10:44:22;;;;;;;6.50;4.10;;;15.60;59.60;;;;;;6259234;28;20794;-78
2023/03/30 10:47:54;;;;;;;4.57;4.00;;;15.60;59.70;;;;;;6258532;28;20229;-77
2023/03/30 10:51:10;;;;;;;6.20;4.30;;;15.80;59.80;;;;;;6248699;28;20227;-79
2023/03/30 10:54:18;;;;;;;7.27;3.83;;;15.80;59.60;;;;;;6250665;28;20240;-78
2023/03/30 10:57:27;;;;;;;7.00;4.20;;;16.00;59.30;;;;;;6266977;28;20685;-77
2023/03/30 11:00:47;;;;;;;6.87;4.07;;;16.10;59.10;;;;;;6289274;28;20680;-77
2023/03/30 11:03:56;;;;;;;4.87;4.17;;;16.20;59.60;;;;;;6278474;28;20940;-76
2023/03/30 11:07:03;;;;;;;5.00;4.30;;;16.20;59.40;;;;;;6282094;28;20796;-76
2023/03/30 11:10:12;;;;;;;7.50;4.00;;;16.40;58.40;;;;;;6284918;28;20265;-78
2023/03/30 11:13:20;;;;;;;10.50;4.83;;;16.40;58.70;;;;;;6264582;28;20234;-80
2023/03/30 11:16:30;;;;;;;7.70;4.60;;;16.40;59.40;;;;;;6287083;28;20225;-79
2023/03/30 11:19:39;;;;;;;8.17;7.27;;;16.60;59.00;;;;;;6286798;28;20244;-77
2023/03/30 11:22:47;;;;;;;7.60;4.73;;;16.60;58.30;;;;;;6288989;28;20289;-77
2023/03/30 11:25:57;;;;;;;9.50;6.97;;;16.60;58.40;;;;;;6289988;28;20367;-75
2023/03/30 11:29:08;;;;;;;5.63;4.30;;;16.60;58.70;;;;;;6265462;28;20776;-78
2023/03/30 11:32:26;;;;;;;4.53;4.13;;;16.60;58.50;;;;;;6259038;28;20284;-77
2023/03/30 11:35:36;;;;;;;4.63;3.87;;;16.70;58.60;;;;;;6257488;28;20250;-76
2023/03/30 11:38:46;;;;;;;8.63;5.43;;;16.80;58.50;;;;;;6254489;28;20249;-76
2023/03/30 11:41:56;;;;;;;3.97;3.63;;;16.90;58.30;;;;;;6259739;28;20249;-77
2023/03/30 11:45:03;;;;;;;5.33;4.40;;;16.80;58.50;;;;;;6262009;28;20753;-79
2023/03/30 11:48:44;;;;;;;6.50;4.63;;;17.00;58.50;;;;;;6263046;28;20242;-78
2023/03/30 11:51:59;;;;;;;6.10;4.50;;;17.20;58.00;;;;;;6242306;28;20249;-77
2023/03/30 11:55:24;;;;;;;7.67;4.70;;;17.40;57.70;;;;;;6259338;28;20679;-78
2023/03/30 11:58:35;;;;;;;7.17;5.10;;;17.50;57.70;;;;;;6261451;28;20241;-78
2023/03/30 12:01:52;;;;;;;9.17;4.37;;;17.40;58.00;;;;;;6251538;28;20314;-78
2023/03/30 12:05:01;;;;;;;5.20;4.70;;;17.40;58.00;;;;;;6253966;28;20226;-78
2023/03/30 12:08:17;;;;;;;6.70;4.43;;;17.40;57.90;;;;;;6259690;28;20244;-79
2023/03/30 12:11:29;;;;;;;8.33;4.57;;;17.30;58.70;;;;;;6260598;28;20426;-77
2023/03/30 12:15:05;;;;;;;7.87;4.83;;;17.50;58.20;;;;;;6289086;28;20263;-77
2023/03/30 12:18:18;;;;;;;5.93;4.10;;;17.60;58.10;;;;;;6269308;28;20313;-79
2023/03/30 12:21:31;;;;;;;8.37;4.37;;;17.70;57.80;;;;;;6258300;28;20239;-77
2023/03/30 12:24:41;;;;;;;7.23;4.50;;;17.80;58.00;;;;;;6254952;28;20473;-76
2023/03/30 12:27:59;;;;;;;7.23;4.37;;;18.00;57.80;;;;;;6260822;28;20237;-74
2023/03/30 12:31:02;;;;;;;5.17;4.20;;;18.10;57.00;;;;;;6269911;28;20720;-77
2023/03/30 12:34:07;;;;;;;7.77;4.00;;;18.10;57.00;;;;;;6281878;28;20614;-75
2023/03/30 12:37:15;;;;;;;6.43;4.30;;;18.00;56.80;;;;;;6269979;28;20245;-75
2023/03/30 12:40:24;;;;;;;8.00;4.27;;;18.20;57.10;;;;;;6263858;28;20612;-74
2023/03/30 12:43:37;;;;;;;5.80;4.20;;;18.30;56.50;;;;;;6266893;28;20478;-76
2023/03/30 12:46:52;;;;;;;5.57;4.00;;;18.40;56.10;;;;;;6259182;28;20705;-77
2023/03/30 12:50:22;;;;;;;4.87;3.83;;;18.30;56.20;;;;;;6259379;28;20234;-75
2023/03/30 12:54:04;;;;;;;4.87;4.10;;;18.30;56.00;;;;;;6259748;28;20233;-76
2023/03/30 12:57:21;;;;;;;4.17;3.83;;;18.40;55.50;;;;;;6257862;28;20356;-76
2023/03/30 13:00:57;;;;;;;5.80;3.50;;;18.70;55.10;;;;;;6271759;28;20616;-77
2023/03/30 13:04:02;;;;;;;4.27;3.83;;;18.70;54.40;;;;;;6262213;28;20242;-77
2023/03/30 13:07:06;;;;;;;8.73;4.20;;;18.70;54.30;;;;;;6261944;28;20911;-74
2023/03/30 13:10:39;;;;;;;6.97;4.10;;;18.60;54.80;;;;;;6252535;28;20768;-77
2023/03/30 13:13:50;;;;;;;4.20;3.80;;;18.60;54.40;;;;;;6266423;28;20221;-76
2023/03/30 13:17:14;;;;;;;5.13;3.87;;;18.40;54.80;;;;;;6269866;28;20249;-76
2023/03/30 13:20:19;;;;;;;4.00;3.73;;;18.50;55.20;;;;;;6235387;28;20320;-78
2023/03/30 13:23:36;;;;;;;7.10;3.80;;;18.60;55.20;;;;;;6253200;28;20241;-79
2023/03/30 13:26:41;;;;;;;4.57;4.17;;;18.40;55.70;;;;;;6263638;28;20835;-77
2023/03/30 13:29:54;;;;;;;6.00;4.30;;;18.40;55.90;;;;;;6262970;28;20230;-78
2023/03/30 13:33:11;;;;;;;4.67;4.17;;;18.30;56.20;;;;;;6264943;28;20331;-76
2023/03/30 13:36:17;;;;;;;5.07;4.40;;;18.20;56.30;;;;;;6272545;28;20230;-76
2023/03/30 13:39:24;;;;;;;9.27;4.67;;;18.20;56.50;;;;;;6267045;28;20686;-75
2023/03/30 13:42:45;;;;;;;6.27;4.20;;;18.20;56.70;;;;;;6257110;28;20261;-75
2023/03/30 13:45:55;;;;;;;4.87;4.40;;;18.10;56.60;;;;;;6238635;28;20668;-77
2023/03/30 13:49:39;;;;;;;9.07;5.50;;;18.00;56.40;;;;;;6258469;28;20237;-76
2023/03/30 13:52:45;;;;;;;4.73;4.07;;;17.80;56.60;;;;;;6256248;28;20247;-76
2023/03/30 13:55:51;;;;;;;6.47;4.87;;;17.60;57.50;;;;;;6240602;28;20246;-77
2023/03/30 13:59:01;;;;;;;3.00;2.77;;;17.40;59.10;;;;;;6268220;28;20411;-76
2023/03/30 14:02:06;;;;;;;2.83;2.30;;;16.70;58.60;;;;;;6273668;28;20241;-79
2023/03/30 14:05:19;;;;;;;2.87;2.77;;;15.70;61.60;;;;;;6250880;28;20241;-77
2023/03/30 14:08:22;;;;;;;3.00;2.83;;;14.40;66.60;;;;;;6288960;28;20240;-79
2023/03/30 14:11:33;;;;;;;3.50;3.20;;;13.50;69.80;;;;;;6265065;28;20242;-77
2023/03/30 14:14:42;;;;;;;4.60;3.40;;;13.00;71.40;;;;;;6283670;28;20824;-76
2023/03/30 14:17:52;;;;;;;3.53;3.33;;;12.80;72.10;;;;;;6255555;28;20237;-77
2023/03/30 14:20:57;;;;;;;3.43;3.13;;;12.50;72.90;;;;;;6251623;28;20262;-77
2023/03/30 14:24:03;;;;;;;3.23;3.07;;;12.40;73.40;;;;;;6256987;28;20234;-74
2023/03/30 14:27:12;;;;;;;4.80;4.50;;;12.20;73.90;;;;;;6260079;28;20242;-77
2023/03/30 14:30:19;;;;;;;3.67;3.50;;;12.20;74.50;;;;;;6258237;28;20291;-78
2023/03/30 14:33:24;;;;;;;3.10;3.00;;;12.10;74.40;;;;;;6249350;28;20720;-77
2023/03/30 14:36:28;;;;;;;3.93;3.43;;;12.10;74.90;;;;;;6256068;28;20260;-77
2023/03/30 14:39:32;;;;;;;3.90;3.70;;;12.10;74.80;;;;;;6251143;28;20490;-75
2023/03/30 14:42:38;;;;;;;3.90;3.70;;;12.00;74.90;;;;;;6248839;28;20339;-74
2023/03/30 14:45:41;;;;;;;3.60;3.40;;;12.00;74.80;;;;;;6255845;28;20772;-77
2023/03/30 14:48:49;;;;;;;4.43;4.03;;;11.90;75.10;;;;;;6252114;28;20617;-75
2023/03/30 14:51:59;;;;;;;4.47;4.17;;;11.90;75.50;;;;;;6247888;28;20234;-76
2023/03/30 14:55:03;;;;;;;4.00;3.80;;;11.90;75.60;;;;;;6241625;28;20609;-76
2023/03/30 14:58:15;;;;;;;3.97;3.70;;;11.90;75.70;;;;;;6247406;28;20254;-77
2023/03/30 15:01:29;;;;;;;4.70;4.27;;;11.90;75.50;;;;;;6262761;28;20753;-79
2023/03/30 15:04:37;;;;;;;4.63;4.37;;;11.90;75.70;;;;;;6251527;28;20250;-78
2023/03/30 15:07:40;;;;;;;4.43;4.10;;;11.90;75.90;;;;;;6250179;28;20314;-77
2023/03/30 15:10:50;;;;;;;4.30;3.93;;;11.90;76.10;;;;;;6249048;28;20253;-76
2023/03/30 15:13:56;;;;;;;5.80;5.30;;;11.90;76.10;;;;;;6250203;28;20231;-74
2023/03/30 15:16:59;;;;;;;5.90;5.30;;;11.90;76.30;;;;;;6254634;28;20244;-78
2023/03/30 15:20:07;;;;;;;5.10;4.60;;;11.90;76.70;;;;;;6248440;28;20477;-75
2023/03/30 15:23:13;;;;;;;4.93;4.67;;;11.90;76.70;;;;;;6240923;28;20234;-77
2023/03/30 15:26:17;;;;;;;4.53;4.20;;;11.90;76.90;;;;;;6264253;28;20321;-74
2023/03/30 15:29:21;;;;;;;4.93;4.73;;;11.90;77.10;;;;;;6257983;28;20829;-78
2023/03/30 15:32:30;;;;;;;5.03;4.53;;;11.90;77.00;;;;;;6256911;28;20291;-74
2023/03/30 15:35:37;;;;;;;5.50;4.80;;;12.00;76.80;;;;;;6245002;28;20474;-79
2023/03/30 15:38:47;;;;;;;5.00;4.60;;;12.00;76.60;;;;;;6252871;28;20221;-76
2023/03/30 15:42:00;;;;;;;5.23;4.83;;;12.00;76.40;;;;;;6253391;28;20241;-77
2023/03/30 15:45:07;;;;;;;6.60;5.03;;;12.00;76.10;;;;;;6261896;28;20234;-76
2023/03/30 15:48:11;;;;;;;5.13;4.83;;;12.10;76.30;;;;;;6262767;28;20861;-76
2023/03/30 15:51:22;;;;;;;5.23;4.73;;;12.10;76.10;;;;;;6255389;28;20245;-76
2023/03/30 15:54:32;;;;;;;5.30;4.83;;;12.20;76.00;;;;;;6249097;28;20235;-77
2023/03/30 15:57:41;;;;;;;6.87;4.50;;;12.20;75.50;;;;;;6253968;28;20229;-80
2023/03/30 16:00:44;;;;;;;6.70;4.77;;;12.20;75.70;;;;;;6269813;28;20244;-77
2023/03/30 16:03:53;;;;;;;5.40;4.90;;;12.20;75.50;;;;;;6263149;28;20314;-77
2023/03/30 16:06:58;;;;;;;4.93;4.60;;;12.20;75.50;;;;;;6255158;28;20245;-74
2023/03/30 16:10:01;;;;;;;6.13;4.57;;;12.10;75.00;;;;;;6261316;28;20304;-76
2023/03/30 16:13:05;;;;;;;5.00;4.70;;;12.00;75.10;;;;;;6254964;28;20865;-77
2023/03/30 16:16:09;;;;;;;5.00;4.70;;;12.00;75.50;;;;;;6265504;28;20238;-77
2023/03/30 16:19:16;;;;;;;5.70;5.20;;;12.00;75.60;;;;;;6261363;28;20245;-78